createdAt,value
2022-12-14T00:01:48.722Z,21.83
2022-12-14T00:04:18.425Z,24.63
2022-12-14T00:06:47.412Z,18.50
2022-12-14T00:09:17.096Z,17.67
2022-12-14T00:11:45.857Z,17.77
2022-12-14T00:14:14.807Z,17.20
2022-12-14T00:16:43.273Z,19.60
2022-12-14T00:19:13.707Z,19.20
2022-12-14T00:21:42.132Z,18.50
2022-12-14T00:24:12.867Z,19.07
2022-12-14T00:26:41.266Z,18.03
2022-12-14T00:29:10.160Z,20.10
2022-12-14T00:31:38.586Z,18.43
2022-12-14T00:34:07.682Z,19.73
2022-12-14T00:36:37.943Z,17.13
2022-12-14T00:39:06.794Z,19.67
2022-12-14T00:41:35.156Z,19.43
2022-12-14T00:44:04.373Z,19.50
2022-12-14T00:46:32.856Z,15.97
2022-12-14T00:49:01.719Z,21.00
2022-12-14T00:51:30.412Z,20.73
2022-12-14T00:54:00.750Z,17.73
2022-12-14T00:56:29.158Z,20.40
2022-12-14T00:58:58.055Z,19.73
2022-12-14T01:01:30.489Z,17.93
2022-12-14T01:04:17.342Z,20.60
2022-12-14T01:06:47.183Z,17.83
2022-12-14T01:09:17.803Z,19.90
2022-12-14T01:11:46.313Z,20.23
2022-12-14T01:14:18.800Z,19.57
2022-12-14T01:16:47.239Z,20.83
2022-12-14T01:19:17.030Z,19.23
2022-12-14T01:21:45.389Z,18.50
2022-12-14T01:24:14.209Z,20.57
2022-12-14T01:26:43.994Z,17.23
2022-12-14T01:29:13.234Z,18.97
2022-12-14T01:31:41.664Z,16.77
2022-12-14T01:34:11.086Z,18.47
2022-12-14T01:36:40.039Z,17.50
2022-12-14T01:39:13.894Z,20.90
2022-12-14T01:41:45.867Z,15.53
2022-12-14T01:44:52.404Z,20.70
2022-12-14T01:47:26.298Z,20.20
2022-12-14T01:50:01.546Z,18.27
2022-12-14T01:52:36.539Z,21.07
2022-12-14T01:55:09.387Z,21.53
2022-12-14T01:57:43.058Z,17.83
2022-12-14T02:00:14.347Z,18.67
2022-12-14T02:02:47.445Z,20.77
2022-12-14T02:05:17.946Z,18.90
2022-12-14T02:07:49.197Z,19.30
2022-12-14T02:10:19.206Z,20.53
2022-12-14T02:12:56.544Z,17.83
2022-12-14T02:15:26.607Z,21.87
2022-12-14T02:17:55.130Z,19.90
2022-12-14T02:20:24.627Z,22.87
2022-12-14T02:23:29.645Z,18.90
2022-12-14T02:26:25.753Z,18.33
2022-12-14T02:29:30.096Z,18.07
2022-12-14T02:32:06.775Z,19.37
2022-12-14T02:34:49.131Z,20.07
2022-12-14T02:37:24.099Z,17.67
2022-12-14T02:40:01.994Z,15.63
2022-12-14T02:42:42.671Z,20.50
2022-12-14T02:45:18.745Z,15.97
2022-12-14T02:47:55.300Z,20.60
2022-12-14T02:50:28.952Z,17.27
2022-12-14T02:53:05.391Z,16.60
2022-12-14T02:55:39.107Z,18.33
2022-12-14T02:58:13.162Z,17.60
2022-12-14T03:00:44.374Z,22.10
2022-12-14T03:03:13.101Z,22.70
2022-12-14T03:05:42.006Z,20.40
2022-12-14T03:08:14.360Z,18.80
2022-12-14T03:10:49.779Z,19.13
2022-12-14T03:13:23.386Z,21.00
2022-12-14T03:15:59.501Z,17.77
2022-12-14T03:18:35.430Z,16.97
2022-12-14T03:21:08.885Z,20.03
2022-12-14T03:23:41.155Z,20.40
2022-12-14T03:26:15.240Z,20.50
2022-12-14T03:28:48.597Z,19.23
2022-12-14T03:31:23.286Z,20.13
2022-12-14T03:33:54.940Z,19.43
2022-12-14T03:36:28.428Z,19.10
2022-12-14T03:39:02.008Z,19.80
2022-12-14T03:41:39.027Z,18.23
2022-12-14T03:44:17.556Z,21.37
2022-12-14T03:46:57.493Z,17.93
2022-12-14T03:49:39.413Z,19.53
2022-12-14T03:52:13.392Z,22.10
2022-12-14T03:54:51.047Z,19.93
2022-12-14T03:57:31.011Z,20.03
2022-12-14T04:00:04.074Z,21.70
2022-12-14T04:02:51.896Z,19.63
2022-12-14T04:05:26.565Z,20.20
2022-12-14T04:08:05.116Z,20.93
2022-12-14T04:10:58.968Z,21.67
2022-12-14T04:13:52.577Z,20.10
2022-12-14T04:16:44.278Z,21.40
2022-12-14T04:19:19.427Z,21.53
2022-12-14T04:21:53.007Z,22.13
2022-12-14T04:24:46.370Z,20.00
2022-12-14T04:27:20.900Z,19.90
2022-12-14T04:29:59.132Z,22.53
2022-12-14T04:32:33.133Z,22.07
2022-12-14T04:35:08.999Z,20.83
2022-12-14T04:37:40.423Z,20.50
2022-12-14T04:40:12.275Z,20.70
2022-12-14T04:42:48.252Z,18.50
2022-12-14T04:45:22.906Z,21.03
2022-12-14T04:47:59.095Z,21.53
2022-12-14T04:50:32.132Z,20.10
2022-12-14T04:53:06.386Z,22.73
2022-12-14T04:55:40.214Z,18.37
2022-12-14T04:58:14.599Z,22.17
2022-12-14T05:00:56.759Z,20.10
2022-12-14T05:03:30.861Z,20.97
2022-12-14T05:06:10.018Z,23.07
2022-12-14T05:09:03.075Z,19.47
2022-12-14T05:11:54.717Z,25.17
2022-12-14T05:14:32.249Z,21.03
2022-12-14T05:17:08.426Z,21.07
2022-12-14T05:19:38.359Z,21.93
2022-12-14T05:22:10.200Z,18.73
2022-12-14T05:24:38.622Z,21.37
2022-12-14T05:27:07.499Z,19.27
2022-12-14T05:29:35.923Z,17.47
2022-12-14T05:32:05.174Z,22.13
2022-12-14T05:34:34.643Z,19.83
2022-12-14T05:37:03.002Z,19.93
2022-12-14T05:39:33.017Z,22.57
2022-12-14T05:42:01.895Z,19.23
2022-12-14T05:44:30.589Z,20.70
2022-12-14T05:46:59.455Z,20.60
2022-12-14T05:49:27.761Z,18.67
2022-12-14T05:51:56.163Z,20.20
2022-12-14T05:54:24.590Z,21.60
2022-12-14T05:56:55.327Z,21.27
2022-12-14T05:59:24.255Z,21.20
2022-12-14T06:01:53.281Z,21.40
2022-12-14T06:04:22.469Z,22.30
2022-12-14T06:06:50.932Z,23.63
2022-12-14T06:09:20.765Z,21.10
2022-12-14T06:11:50.474Z,23.57
2022-12-14T06:14:21.049Z,21.33
2022-12-14T06:16:49.402Z,25.63
2022-12-14T06:19:18.411Z,20.80
2022-12-14T06:21:47.133Z,23.77
2022-12-14T06:24:15.647Z,20.03
2022-12-14T06:26:44.993Z,22.17
2022-12-14T06:29:16.843Z,24.13
2022-12-14T06:31:49.027Z,23.70
2022-12-14T06:34:18.134Z,20.40
2022-12-14T06:36:48.239Z,22.47
2022-12-14T06:39:17.979Z,24.77
2022-12-14T06:41:51.014Z,24.33
2022-12-14T06:44:20.100Z,24.60
2022-12-14T06:46:50.114Z,25.57
2022-12-14T06:49:19.066Z,24.77
2022-12-14T06:51:47.717Z,24.37
2022-12-14T06:54:17.533Z,24.43
2022-12-14T06:56:48.319Z,23.53
2022-12-14T06:59:17.426Z,23.53
2022-12-14T07:01:50.037Z,25.30
2022-12-14T07:04:21.413Z,22.73
2022-12-14T07:06:50.912Z,24.80
2022-12-14T07:09:19.585Z,25.33
2022-12-14T07:11:50.947Z,23.77
2022-12-14T07:14:19.374Z,25.20
2022-12-14T07:16:49.311Z,24.00
2022-12-14T07:19:20.327Z,25.23
2022-12-14T07:21:48.737Z,23.83
2022-12-14T07:24:17.850Z,24.50
2022-12-14T07:26:46.743Z,25.80
2022-12-14T07:29:16.856Z,24.30
2022-12-14T07:31:49.413Z,26.43
2022-12-14T07:34:20.675Z,26.60
2022-12-14T07:36:51.457Z,23.83
2022-12-14T07:39:20.487Z,26.97
2022-12-14T07:41:50.536Z,25.40
2022-12-14T07:44:23.544Z,23.90
2022-12-14T07:46:52.112Z,26.80
2022-12-14T07:49:22.518Z,23.57
2022-12-14T07:51:52.936Z,26.73
2022-12-14T07:54:22.046Z,27.43
2022-12-14T07:56:50.904Z,29.80
2022-12-14T07:59:19.838Z,29.00
2022-12-14T08:01:48.357Z,27.77
2022-12-14T08:04:20.368Z,27.20
2022-12-14T08:06:50.617Z,25.23
2022-12-14T08:09:20.269Z,26.03
2022-12-14T08:11:48.904Z,23.57
2022-12-14T08:14:19.208Z,24.50
2022-12-14T08:16:50.522Z,25.20
2022-12-14T08:19:20.024Z,37.47
2022-12-14T08:21:50.166Z,26.33
2022-12-14T08:24:18.520Z,24.93
2022-12-14T08:26:49.441Z,28.37
2022-12-14T08:29:19.087Z,26.27
2022-12-14T08:31:48.048Z,25.10
2022-12-14T08:34:21.915Z,25.33
2022-12-14T08:36:52.211Z,26.77
2022-12-14T08:39:21.176Z,26.87
2022-12-14T08:41:49.951Z,26.60
2022-12-14T08:44:18.670Z,24.90
2022-12-14T08:46:47.641Z,31.03
2022-12-14T08:49:16.314Z,28.97
2022-12-14T08:51:45.088Z,27.30
2022-12-14T08:54:15.067Z,28.13
2022-12-14T08:56:44.824Z,28.90
2022-12-14T08:59:30.265Z,27.13
2022-12-14T09:02:02.484Z,28.10
2022-12-14T09:04:30.911Z,26.07
2022-12-14T09:06:59.318Z,26.23
2022-12-14T09:09:29.971Z,24.70
2022-12-14T09:12:03.258Z,27.40
2022-12-14T09:14:32.232Z,24.47
2022-12-14T09:17:01.102Z,26.90
2022-12-14T09:19:30.786Z,26.97
2022-12-14T09:21:59.432Z,26.40
2022-12-14T09:24:29.457Z,23.60
2022-12-14T09:27:01.489Z,24.50
2022-12-14T09:29:31.345Z,28.17
2022-12-14T09:31:59.796Z,27.20
2022-12-14T09:34:29.891Z,27.20
2022-12-14T09:36:59.030Z,26.30
2022-12-14T09:39:29.710Z,27.27
2022-12-14T09:42:10.094Z,27.60
2022-12-14T09:44:47.827Z,25.57
2022-12-14T09:47:20.214Z,25.53
2022-12-14T09:49:52.637Z,24.97
2022-12-14T09:52:24.859Z,23.70
2022-12-14T09:54:56.327Z,24.37
2022-12-14T09:57:30.044Z,24.53
2022-12-14T09:59:58.743Z,28.03
2022-12-14T10:02:38.483Z,25.63
2022-12-14T10:05:24.815Z,28.00
2022-12-14T10:08:02.852Z,27.30
2022-12-14T10:10:40.201Z,26.70
2022-12-14T10:13:21.141Z,28.10
2022-12-14T10:15:59.451Z,28.53
2022-12-14T10:18:59.505Z,27.37
2022-12-14T10:21:39.403Z,27.47
2022-12-14T10:24:14.701Z,26.53
2022-12-14T10:26:48.091Z,27.10
2022-12-14T10:29:23.206Z,28.47
2022-12-14T10:32:00.666Z,27.47
2022-12-14T10:34:31.294Z,27.30
2022-12-14T10:37:13.626Z,32.40
2022-12-14T10:39:54.925Z,28.20
2022-12-14T10:42:32.544Z,31.30
2022-12-14T10:48:23.696Z,28.13
2022-12-14T10:50:58.217Z,28.93
2022-12-14T10:53:35.808Z,28.90
2022-12-14T10:56:15.451Z,25.90
2022-12-14T10:58:46.256Z,28.40
2022-12-14T11:01:16.044Z,27.67
2022-12-14T11:03:49.711Z,26.70
2022-12-14T11:06:21.116Z,26.30
2022-12-14T11:08:51.139Z,27.73
2022-12-14T11:11:22.929Z,29.00
2022-12-14T11:13:55.280Z,28.47
2022-12-14T11:16:36.745Z,29.13
2022-12-14T11:19:06.927Z,25.60
2022-12-14T11:21:38.515Z,26.83
2022-12-14T11:24:08.907Z,27.77
2022-12-14T11:26:41.684Z,26.37
2022-12-14T11:29:22.158Z,28.63
2022-12-14T11:31:52.754Z,27.97
2022-12-14T11:34:27.052Z,30.03
2022-12-14T11:36:55.508Z,31.57
2022-12-14T11:39:26.042Z,28.13
2022-12-14T11:42:02.769Z,29.57
2022-12-14T11:44:36.460Z,26.70
2022-12-14T11:47:08.665Z,30.70
2022-12-14T11:49:45.097Z,26.57
2022-12-14T11:52:17.623Z,31.50
2022-12-14T11:54:50.149Z,29.87
2022-12-14T11:57:26.092Z,33.93
2022-12-14T11:59:59.392Z,31.20
2022-12-14T12:02:31.253Z,27.93
2022-12-14T12:05:08.866Z,32.23
2022-12-14T12:07:40.500Z,28.20
2022-12-14T12:10:19.853Z,32.97
2022-12-14T12:12:54.214Z,31.60
2022-12-14T12:15:36.538Z,36.97
2022-12-14T12:18:09.959Z,33.40
2022-12-14T12:20:42.535Z,60.80
2022-12-14T12:23:15.558Z,58.63
2022-12-14T12:25:46.997Z,33.93
2022-12-14T12:28:20.679Z,35.63
2022-12-14T12:30:55.922Z,34.50
2022-12-14T12:33:32.578Z,36.20
2022-12-14T12:36:04.690Z,35.37
2022-12-14T12:38:51.600Z,34.20
2022-12-14T12:41:30.387Z,30.10
2022-12-14T12:44:03.521Z,35.40
2022-12-14T12:46:53.569Z,35.23
2022-12-14T12:49:27.377Z,31.27
2022-12-14T12:52:00.706Z,27.13
2022-12-14T12:54:36.309Z,32.77
2022-12-14T12:57:07.978Z,32.20
2022-12-14T12:59:41.631Z,29.47
2022-12-14T13:02:23.080Z,33.13
2022-12-14T13:04:53.892Z,31.00
2022-12-14T13:07:31.839Z,28.90
2022-12-14T13:10:06.059Z,35.40
2022-12-14T13:12:39.970Z,40.37
2022-12-14T13:15:19.181Z,42.93
2022-12-14T13:17:53.036Z,32.43
2022-12-14T13:20:25.441Z,33.13
2022-12-14T13:22:55.188Z,36.83
2022-12-14T13:25:28.360Z,32.70
2022-12-14T13:28:22.170Z,32.10
2022-12-14T13:31:03.008Z,36.33
2022-12-14T13:34:08.129Z,32.80
2022-12-14T13:37:11.096Z,34.87
2022-12-14T13:40:19.465Z,32.20
2022-12-14T13:42:59.093Z,30.47
2022-12-14T13:45:31.311Z,30.00
2022-12-14T13:48:00.521Z,32.50
2022-12-14T13:50:36.684Z,32.37
2022-12-14T13:53:14.497Z,31.23
2022-12-14T13:55:49.252Z,39.60
2022-12-14T13:58:21.072Z,41.83
2022-12-14T14:00:59.846Z,39.60
2022-12-14T14:03:53.084Z,36.43
2022-12-14T14:06:38.175Z,40.00
2022-12-14T14:09:59.749Z,44.03
2022-12-14T14:12:46.459Z,43.63
2022-12-14T14:15:29.425Z,40.47
2022-12-14T14:18:08.582Z,48.73
2022-12-14T14:20:42.590Z,51.30
2022-12-14T14:23:33.196Z,48.93
2022-12-14T14:26:19.204Z,47.90
2022-12-14T14:29:05.562Z,47.83
2022-12-14T14:31:52.841Z,45.13
2022-12-14T14:34:25.923Z,45.53
2022-12-14T14:36:55.035Z,43.03
2022-12-14T14:39:56.205Z,42.00
2022-12-14T14:42:28.495Z,42.80
2022-12-14T14:44:59.269Z,40.53
2022-12-14T14:47:32.768Z,43.63
2022-12-14T14:50:04.203Z,46.60
2022-12-14T14:53:01.375Z,43.77
2022-12-14T14:55:54.120Z,41.63
2022-12-14T14:58:28.662Z,43.67
2022-12-14T15:01:03.634Z,39.63
2022-12-14T15:03:46.446Z,53.33
2022-12-14T15:06:17.094Z,40.80
2022-12-14T15:08:50.126Z,40.77
2022-12-14T15:11:22.480Z,37.47
2022-12-14T15:13:55.129Z,53.10
2022-12-14T15:16:29.779Z,58.47
2022-12-14T15:19:21.922Z,47.00
2022-12-14T15:21:53.289Z,41.47
2022-12-14T15:24:23.253Z,43.53
2022-12-14T15:26:53.917Z,62.10
2022-12-14T15:29:27.876Z,53.73
2022-12-14T15:32:00.862Z,42.43
2022-12-14T15:34:29.614Z,39.23
2022-12-14T15:36:58.749Z,40.57
2022-12-14T15:39:40.268Z,43.03
2022-12-14T15:42:15.681Z,37.93
2022-12-14T15:44:51.560Z,42.50
2022-12-14T15:47:26.107Z,42.00
2022-12-14T15:49:59.698Z,37.03
2022-12-14T15:52:31.701Z,38.77
2022-12-14T15:55:01.173Z,35.73
2022-12-14T15:57:31.642Z,37.07
2022-12-14T16:00:00.630Z,35.30
2022-12-14T16:02:32.182Z,37.20
2022-12-14T16:05:03.533Z,36.07
2022-12-14T16:07:39.904Z,32.43
2022-12-14T16:10:20.320Z,37.87
2022-12-14T16:12:53.879Z,36.77
2022-12-14T16:15:24.979Z,38.77
2022-12-14T16:18:01.441Z,41.83
2022-12-14T16:20:34.940Z,42.23
2022-12-14T16:23:07.357Z,99.27
2022-12-14T16:25:36.811Z,135.70
2022-12-14T16:28:23.172Z,77.20
2022-12-14T16:30:57.288Z,47.67
2022-12-14T16:33:26.715Z,44.63
2022-12-14T16:36:07.351Z,41.70
2022-12-14T16:38:42.791Z,37.13
2022-12-14T16:41:11.293Z,41.20
2022-12-14T16:43:42.843Z,54.43
2022-12-14T16:46:17.496Z,93.17
2022-12-14T16:48:50.316Z,54.60
2022-12-14T16:51:58.190Z,72.07
2022-12-14T16:54:27.061Z,52.90
2022-12-14T16:57:01.982Z,43.60
2022-12-14T16:59:41.065Z,43.73
2022-12-14T17:02:28.192Z,39.67
2022-12-14T17:04:58.611Z,40.37
2022-12-14T17:07:30.189Z,43.90
2022-12-14T17:09:59.336Z,49.30
2022-12-14T17:12:27.956Z,46.37
2022-12-14T17:14:57.864Z,46.67
2022-12-14T17:17:32.871Z,44.83
2022-12-14T17:20:02.693Z,44.67
2022-12-14T17:22:34.101Z,47.57
2022-12-14T17:25:03.467Z,46.40
2022-12-14T17:27:32.109Z,45.87
2022-12-14T17:30:02.821Z,48.57
2022-12-14T17:32:31.814Z,45.70
2022-12-14T17:35:01.008Z,55.13
2022-12-14T17:37:34.289Z,48.33
2022-12-14T17:40:07.508Z,45.87
2022-12-14T17:42:38.631Z,46.13
2022-12-14T17:45:21.277Z,26.77
2022-12-14T17:47:50.735Z,56.00
2022-12-14T17:50:20.353Z,104.47
2022-12-14T17:52:50.721Z,87.57
2022-12-14T17:55:21.773Z,72.10
2022-12-14T17:57:50.716Z,65.37
2022-12-14T18:00:40.117Z,58.27
2022-12-14T18:03:10.261Z,47.43
2022-12-14T18:05:44.886Z,56.10
2022-12-14T18:08:15.068Z,47.57
2022-12-14T18:10:44.150Z,49.37
2022-12-14T18:13:13.427Z,45.07
2022-12-14T18:15:50.192Z,57.80
2022-12-14T18:18:19.695Z,58.80
2022-12-14T18:20:51.407Z,71.97
2022-12-14T18:23:21.006Z,65.57
2022-12-14T18:25:51.694Z,54.57
2022-12-14T18:28:21.681Z,66.10
2022-12-14T18:30:55.547Z,54.73
2022-12-14T18:33:25.357Z,47.17
2022-12-14T18:35:56.678Z,51.07
2022-12-14T18:38:25.513Z,55.87
2022-12-14T18:40:58.579Z,56.23
2022-12-14T18:43:29.417Z,49.67
2022-12-14T18:46:00.419Z,50.47
2022-12-14T18:48:28.868Z,57.97
2022-12-14T18:50:57.421Z,62.13
2022-12-14T18:53:27.222Z,61.13
2022-12-14T18:55:55.940Z,53.57
2022-12-14T18:58:27.332Z,54.13
2022-12-14T19:00:58.116Z,58.50
2022-12-14T19:03:31.641Z,55.43
2022-12-14T19:06:34.859Z,70.27
2022-12-14T19:08:54.630Z,58.50
2022-12-14T19:11:30.394Z,52.80
2022-12-14T19:13:59.312Z,57.23
2022-12-14T19:16:28.313Z,61.03
2022-12-14T19:18:58.661Z,62.67
2022-12-14T19:21:27.928Z,58.40
2022-12-14T19:23:57.330Z,55.97
2022-12-14T19:26:28.042Z,53.00
2022-12-14T19:28:56.797Z,59.97
2022-12-14T19:31:25.308Z,45.10
2022-12-14T19:33:54.697Z,44.53
2022-12-14T19:36:25.159Z,43.43
2022-12-14T19:38:53.992Z,54.00
2022-12-14T19:41:22.386Z,50.80
2022-12-14T19:43:51.013Z,44.73
2022-12-14T19:46:20.241Z,53.50
2022-12-14T19:48:48.659Z,48.93
2022-12-14T19:51:19.350Z,50.10
2022-12-14T19:53:49.328Z,45.50
2022-12-14T19:56:19.529Z,45.83
2022-12-14T19:58:48.698Z,49.00
2022-12-14T20:01:19.096Z,40.47
2022-12-14T20:03:49.475Z,41.20
2022-12-14T20:06:18.325Z,40.80
2022-12-14T20:08:49.391Z,42.83
2022-12-14T20:11:20.629Z,42.80
2022-12-14T20:13:54.901Z,57.47
2022-12-14T20:16:27.734Z,45.80
2022-12-14T20:18:56.237Z,47.13
2022-12-14T20:21:29.184Z,50.10
2022-12-14T20:23:58.478Z,52.43
2022-12-14T20:26:29.561Z,47.93
2022-12-14T20:29:00.941Z,45.63
2022-12-14T20:31:29.765Z,46.33
2022-12-14T20:34:00.101Z,45.37
2022-12-14T20:36:28.972Z,43.70
2022-12-14T20:38:58.359Z,49.57
2022-12-14T20:41:31.653Z,49.43
2022-12-14T20:44:02.045Z,50.53
2022-12-14T20:46:32.557Z,61.30
2022-12-14T20:49:04.382Z,53.53
2022-12-14T20:51:34.740Z,45.17
2022-12-14T20:54:04.055Z,48.27
2022-12-14T20:56:35.374Z,47.03
2022-12-14T20:59:04.363Z,59.67
2022-12-14T21:01:33.287Z,59.83
2022-12-14T21:04:02.425Z,61.83
2022-12-14T21:06:30.815Z,60.87
2022-12-14T21:09:05.504Z,47.93
2022-12-14T21:11:54.461Z,46.60
2022-12-14T21:14:25.953Z,56.77
2022-12-14T21:16:54.916Z,43.10
2022-12-14T21:19:24.603Z,42.50
2022-12-14T21:21:54.162Z,45.27
2022-12-14T21:25:01.138Z,49.43
2022-12-14T21:27:16.973Z,51.87
2022-12-14T21:29:46.487Z,46.37
2022-12-14T21:32:16.056Z,46.00
2022-12-14T21:34:46.092Z,45.07
2022-12-14T21:37:15.318Z,46.00
2022-12-14T21:39:51.869Z,47.77
2022-12-14T21:42:23.578Z,47.73
2022-12-14T21:44:53.452Z,47.70
2022-12-14T21:47:23.553Z,45.73
2022-12-14T21:49:52.647Z,45.33
2022-12-14T21:52:23.189Z,44.63
2022-12-14T21:54:52.189Z,47.60
2022-12-14T21:57:40.057Z,42.93
2022-12-14T22:00:12.648Z,47.53
2022-12-14T22:02:42.666Z,43.00
2022-12-14T22:05:12.044Z,45.10
2022-12-14T22:07:40.735Z,47.43
2022-12-14T22:10:09.827Z,48.90
2022-12-14T22:12:38.192Z,47.03
2022-12-14T22:15:08.523Z,49.40
2022-12-14T22:17:38.494Z,49.10
2022-12-14T22:20:09.053Z,49.03
2022-12-14T22:22:37.526Z,47.43
2022-12-14T22:25:07.403Z,45.17
2022-12-14T22:27:35.807Z,44.43
2022-12-14T22:30:05.665Z,45.10
2022-12-14T22:32:34.085Z,47.93
2022-12-14T22:35:04.897Z,47.97
2022-12-14T22:37:33.393Z,47.13
2022-12-14T22:40:02.555Z,45.13
2022-12-14T22:42:31.125Z,46.87
2022-12-14T22:45:00.316Z,47.03
2022-12-14T22:47:29.638Z,44.40
2022-12-14T22:49:58.704Z,47.33
2022-12-14T22:52:28.424Z,47.13
2022-12-14T22:54:57.219Z,46.73
2022-12-14T22:57:25.792Z,47.00
2022-12-14T22:59:58.722Z,55.07
2022-12-14T23:02:27.509Z,58.07
2022-12-14T23:04:57.007Z,65.60
2022-12-14T23:07:26.045Z,73.87
2022-12-14T23:10:13.710Z,52.23
2022-12-14T23:12:59.825Z,76.47
2022-12-14T23:15:45.881Z,60.70
2022-12-14T23:18:31.917Z,58.53
2022-12-14T23:21:18.154Z,57.70
2022-12-14T23:24:04.627Z,51.20
2022-12-14T23:26:52.722Z,62.57
2022-12-14T23:29:38.706Z,56.57
2022-12-14T23:32:25.052Z,55.17
2022-12-14T23:35:11.259Z,55.00
2022-12-14T23:37:57.707Z,53.50
2022-12-14T23:40:43.822Z,52.20
2022-12-14T23:43:34.656Z,60.87
2022-12-14T23:46:22.528Z,49.83
2022-12-14T23:49:13.732Z,47.87
2022-12-14T23:52:02.518Z,46.97
2022-12-14T23:54:49.325Z,48.03
2022-12-14T23:57:35.863Z,44.40
